sensor_id;sensor_type;location;lat;lon;timestamp;temperature;humidity
80230;DHT22;69540;42.136;24.742;2024-02-23T00:00:00;11.50;49.50
80230;DHT22;69540;42.136;24.742;2024-02-23T00:02:31;11.50;49.80
80230;DHT22;69540;42.136;24.742;2024-02-23T00:04:57;11.50;49.90
80230;DHT22;69540;42.136;24.742;2024-02-23T00:07:22;11.50;49.90
80230;DHT22;69540;42.136;24.742;2024-02-23T00:09:48;11.40;49.60
80230;DHT22;69540;42.136;24.742;2024-02-23T00:12:14;11.30;49.80
80230;DHT22;69540;42.136;24.742;2024-02-23T00:14:39;11.30;50.00
80230;DHT22;69540;42.136;24.742;2024-02-23T00:17:05;11.30;49.80
80230;DHT22;69540;42.136;24.742;2024-02-23T00:19:31;11.30;49.50
80230;DHT22;69540;42.136;24.742;2024-02-23T00:21:57;11.20;49.20
80230;DHT22;69540;42.136;24.742;2024-02-23T00:24:25;11.20;49.00
80230;DHT22;69540;42.136;24.742;2024-02-23T00:26:51;11.20;49.20
80230;DHT22;69540;42.136;24.742;2024-02-23T00:29:17;11.10;49.40
80230;DHT22;69540;42.136;24.742;2024-02-23T00:31:43;11.10;49.30
80230;DHT22;69540;42.136;24.742;2024-02-23T00:34:11;11.10;49.10
80230;DHT22;69540;42.136;24.742;2024-02-23T00:36:42;11.10;49.20
80230;DHT22;69540;42.136;24.742;2024-02-23T00:39:08;11.00;49.40
80230;DHT22;69540;42.136;24.742;2024-02-23T00:41:35;11.00;49.50
80230;DHT22;69540;42.136;24.742;2024-02-23T00:44:01;11.00;49.80
80230;DHT22;69540;42.136;24.742;2024-02-23T00:46:27;11.00;49.80
80230;DHT22;69540;42.136;24.742;2024-02-23T00:48:53;11.00;49.90
80230;DHT22;69540;42.136;24.742;2024-02-23T00:51:19;10.90;49.80
80230;DHT22;69540;42.136;24.742;2024-02-23T00:53:45;10.90;49.90
80230;DHT22;69540;42.136;24.742;2024-02-23T00:56:11;10.80;49.90
80230;DHT22;69540;42.136;24.742;2024-02-23T00:58:36;10.80;49.80
80230;DHT22;69540;42.136;24.742;2024-02-23T01:01:02;10.80;49.80
80230;DHT22;69540;42.136;24.742;2024-02-23T01:03:28;10.70;49.80
80230;DHT22;69540;42.136;24.742;2024-02-23T01:05:54;10.60;50.00
80230;DHT22;69540;42.136;24.742;2024-02-23T01:08:20;10.60;50.00
80230;DHT22;69540;42.136;24.742;2024-02-23T01:10:45;10.60;50.00
80230;DHT22;69540;42.136;24.742;2024-02-23T01:13:11;10.60;50.00
80230;DHT22;69540;42.136;24.742;2024-02-23T01:15:37;10.60;50.00
80230;DHT22;69540;42.136;24.742;2024-02-23T01:18:04;10.60;49.80
80230;DHT22;69540;42.136;24.742;2024-02-23T01:20:31;10.50;49.80
80230;DHT22;69540;42.136;24.742;2024-02-23T01:22:57;10.50;49.70
80230;DHT22;69540;42.136;24.742;2024-02-23T01:25:23;10.50;49.50
80230;DHT22;69540;42.136;24.742;2024-02-23T01:27:48;10.50;49.60
80230;DHT22;69540;42.136;24.742;2024-02-23T01:30:14;10.40;49.70
80230;DHT22;69540;42.136;24.742;2024-02-23T01:32:40;10.40;49.90
80230;DHT22;69540;42.136;24.742;2024-02-23T01:35:06;10.30;50.10
80230;DHT22;69540;42.136;24.742;2024-02-23T01:37:33;10.30;50.10
80230;DHT22;69540;42.136;24.742;2024-02-23T01:39:59;10.30;50.10
80230;DHT22;69540;42.136;24.742;2024-02-23T01:42:26;10.30;50.00
80230;DHT22;69540;42.136;24.742;2024-02-23T01:44:52;10.20;50.20
80230;DHT22;69540;42.136;24.742;2024-02-23T01:47:18;10.30;50.40
80230;DHT22;69540;42.136;24.742;2024-02-23T01:49:46;10.30;50.50
80230;DHT22;69540;42.136;24.742;2024-02-23T01:52:13;10.20;50.60
80230;DHT22;69540;42.136;24.742;2024-02-23T01:54:40;10.20;50.50
80230;DHT22;69540;42.136;24.742;2024-02-23T01:57:06;10.10;50.60
80230;DHT22;69540;42.136;24.742;2024-02-23T01:59:35;10.10;50.20
80230;DHT22;69540;42.136;24.742;2024-02-23T02:02:03;10.10;50.20
80230;DHT22;69540;42.136;24.742;2024-02-23T02:04:29;10.10;50.30
80230;DHT22;69540;42.136;24.742;2024-02-23T02:06:55;10.10;50.30
80230;DHT22;69540;42.136;24.742;2024-02-23T02:09:21;10.10;50.00
80230;DHT22;69540;42.136;24.742;2024-02-23T02:11:48;10.00;49.90
80230;DHT22;69540;42.136;24.742;2024-02-23T02:14:14;10.00;50.00
80230;DHT22;69540;42.136;24.742;2024-02-23T02:16:40;9.90;50.10
80230;DHT22;69540;42.136;24.742;2024-02-23T02:19:06;9.90;50.20
80230;DHT22;69540;42.136;24.742;2024-02-23T02:21:33;9.90;50.20
80230;DHT22;69540;42.136;24.742;2024-02-23T02:23:59;9.90;50.40
80230;DHT22;69540;42.136;24.742;2024-02-23T02:26:24;9.80;50.40
80230;DHT22;69540;42.136;24.742;2024-02-23T02:28:50;9.90;50.50
80230;DHT22;69540;42.136;24.742;2024-02-23T02:31:16;9.90;50.60
80230;DHT22;69540;42.136;24.742;2024-02-23T02:33:42;9.90;50.50
80230;DHT22;69540;42.136;24.742;2024-02-23T02:36:07;9.90;50.50
80230;DHT22;69540;42.136;24.742;2024-02-23T02:38:33;9.80;50.50
80230;DHT22;69540;42.136;24.742;2024-02-23T02:40:59;9.90;50.50
80230;DHT22;69540;42.136;24.742;2024-02-23T02:43:28;9.80;50.60
80230;DHT22;69540;42.136;24.742;2024-02-23T02:45:54;9.80;50.80
80230;DHT22;69540;42.136;24.742;2024-02-23T02:48:19;9.80;51.10
80230;DHT22;69540;42.136;24.742;2024-02-23T02:50:45;9.70;51.30
80230;DHT22;69540;42.136;24.742;2024-02-23T02:53:11;9.80;51.30
80230;DHT22;69540;42.136;24.742;2024-02-23T02:55:41;9.80;52.30
80230;DHT22;69540;42.136;24.742;2024-02-23T02:58:06;9.70;51.50
80230;DHT22;69540;42.136;24.742;2024-02-23T03:00:33;9.70;51.50
80230;DHT22;69540;42.136;24.742;2024-02-23T03:02:59;9.70;51.50
80230;DHT22;69540;42.136;24.742;2024-02-23T03:05:24;9.70;51.50
80230;DHT22;69540;42.136;24.742;2024-02-23T03:07:50;9.70;51.50
80230;DHT22;69540;42.136;24.742;2024-02-23T03:10:16;9.70;51.50
80230;DHT22;69540;42.136;24.742;2024-02-23T03:12:42;9.70;51.60
80230;DHT22;69540;42.136;24.742;2024-02-23T03:15:07;9.60;51.70
80230;DHT22;69540;42.136;24.742;2024-02-23T03:17:35;9.50;51.80
80230;DHT22;69540;42.136;24.742;2024-02-23T03:20:01;9.50;51.80
80230;DHT22;69540;42.136;24.742;2024-02-23T03:22:27;9.50;51.50
80230;DHT22;69540;42.136;24.742;2024-02-23T03:24:52;9.40;51.50
80230;DHT22;69540;42.136;24.742;2024-02-23T03:27:19;9.40;51.40
80230;DHT22;69540;42.136;24.742;2024-02-23T03:29:45;9.40;51.30
80230;DHT22;69540;42.136;24.742;2024-02-23T03:32:10;9.30;51.40
80230;DHT22;69540;42.136;24.742;2024-02-23T03:34:36;9.30;51.40
80230;DHT22;69540;42.136;24.742;2024-02-23T03:37:02;9.20;51.50
80230;DHT22;69540;42.136;24.742;2024-02-23T03:39:28;9.20;51.50
80230;DHT22;69540;42.136;24.742;2024-02-23T03:41:54;9.10;51.70
80230;DHT22;69540;42.136;24.742;2024-02-23T03:44:20;9.10;51.80
80230;DHT22;69540;42.136;24.742;2024-02-23T03:46:45;9.10;51.70
80230;DHT22;69540;42.136;24.742;2024-02-23T03:49:12;9.20;51.70
80230;DHT22;69540;42.136;24.742;2024-02-23T03:51:37;9.10;51.80
80230;DHT22;69540;42.136;24.742;2024-02-23T03:54:05;9.10;52.00
80230;DHT22;69540;42.136;24.742;2024-02-23T03:56:41;9.10;52.20
80230;DHT22;69540;42.136;24.742;2024-02-23T03:59:08;9.10;52.30
80230;DHT22;69540;42.136;24.742;2024-02-23T04:01:39;9.00;52.10
80230;DHT22;69540;42.136;24.742;2024-02-23T04:04:05;9.00;52.50
80230;DHT22;69540;42.136;24.742;2024-02-23T04:06:31;9.00;52.50
80230;DHT22;69540;42.136;24.742;2024-02-23T04:08:57;8.90;52.60
80230;DHT22;69540;42.136;24.742;2024-02-23T04:11:22;8.90;53.00
80230;DHT22;69540;42.136;24.742;2024-02-23T04:13:48;8.80;53.30
80230;DHT22;69540;42.136;24.742;2024-02-23T04:16:14;8.90;53.30
80230;DHT22;69540;42.136;24.742;2024-02-23T04:18:39;8.90;53.10
80230;DHT22;69540;42.136;24.742;2024-02-23T04:21:05;8.90;53.20
80230;DHT22;69540;42.136;24.742;2024-02-23T04:23:31;8.90;53.30
80230;DHT22;69540;42.136;24.742;2024-02-23T04:25:56;8.90;53.30
80230;DHT22;69540;42.136;24.742;2024-02-23T04:28:22;8.80;53.30
80230;DHT22;69540;42.136;24.742;2024-02-23T04:30:48;8.80;53.30
80230;DHT22;69540;42.136;24.742;2024-02-23T04:33:14;8.90;53.30
80230;DHT22;69540;42.136;24.742;2024-02-23T04:35:39;8.90;53.30
80230;DHT22;69540;42.136;24.742;2024-02-23T04:38:05;8.90;53.30
80230;DHT22;69540;42.136;24.742;2024-02-23T04:40:31;8.80;53.40
80230;DHT22;69540;42.136;24.742;2024-02-23T04:42:56;8.80;53.50
80230;DHT22;69540;42.136;24.742;2024-02-23T04:45:22;8.80;53.30
80230;DHT22;69540;42.136;24.742;2024-02-23T04:47:48;8.80;53.30
80230;DHT22;69540;42.136;24.742;2024-02-23T04:50:14;8.80;53.60
80230;DHT22;69540;42.136;24.742;2024-02-23T04:52:40;8.70;53.90
80230;DHT22;69540;42.136;24.742;2024-02-23T04:55:05;8.70;54.10
80230;DHT22;69540;42.136;24.742;2024-02-23T04:57:32;8.70;54.30
80230;DHT22;69540;42.136;24.742;2024-02-23T04:59:57;8.60;54.40
80230;DHT22;69540;42.136;24.742;2024-02-23T05:02:23;8.60;54.50
80230;DHT22;69540;42.136;24.742;2024-02-23T05:04:49;8.60;54.60
80230;DHT22;69540;42.136;24.742;2024-02-23T05:07:14;8.60;54.70
80230;DHT22;69540;42.136;24.742;2024-02-23T05:09:40;8.60;54.70
80230;DHT22;69540;42.136;24.742;2024-02-23T05:12:07;8.50;54.80
80230;DHT22;69540;42.136;24.742;2024-02-23T05:14:33;8.50;55.00
80230;DHT22;69540;42.136;24.742;2024-02-23T05:16:59;8.60;55.00
80230;DHT22;69540;42.136;24.742;2024-02-23T05:19:25;8.60;54.90
80230;DHT22;69540;42.136;24.742;2024-02-23T05:21:50;8.60;55.10
80230;DHT22;69540;42.136;24.742;2024-02-23T05:24:16;8.60;55.20
80230;DHT22;69540;42.136;24.742;2024-02-23T05:26:41;8.50;55.20
80230;DHT22;69540;42.136;24.742;2024-02-23T05:29:09;8.50;55.30
80230;DHT22;69540;42.136;24.742;2024-02-23T05:31:47;8.50;55.30
80230;DHT22;69540;42.136;24.742;2024-02-23T05:34:13;8.50;55.30
80230;DHT22;69540;42.136;24.742;2024-02-23T05:36:39;8.70;55.30
80230;DHT22;69540;42.136;24.742;2024-02-23T05:39:04;8.70;55.20
80230;DHT22;69540;42.136;24.742;2024-02-23T05:41:33;8.70;55.10
80230;DHT22;69540;42.136;24.742;2024-02-23T05:43:58;8.70;55.10
80230;DHT22;69540;42.136;24.742;2024-02-23T05:46:24;8.70;55.00
80230;DHT22;69540;42.136;24.742;2024-02-23T05:48:50;8.80;54.80
80230;DHT22;69540;42.136;24.742;2024-02-23T05:51:15;8.80;54.70
80230;DHT22;69540;42.136;24.742;2024-02-23T05:53:41;8.90;54.70
80230;DHT22;69540;42.136;24.742;2024-02-23T05:56:07;8.90;54.70
80230;DHT22;69540;42.136;24.742;2024-02-23T05:58:33;8.80;54.70
80230;DHT22;69540;42.136;24.742;2024-02-23T06:00:58;8.80;54.80
80230;DHT22;69540;42.136;24.742;2024-02-23T06:03:24;8.80;55.00
80230;DHT22;69540;42.136;24.742;2024-02-23T06:05:50;8.80;55.20
80230;DHT22;69540;42.136;24.742;2024-02-23T06:08:15;8.80;55.30
80230;DHT22;69540;42.136;24.742;2024-02-23T06:10:41;8.80;55.40
80230;DHT22;69540;42.136;24.742;2024-02-23T06:13:08;8.80;55.40
80230;DHT22;69540;42.136;24.742;2024-02-23T06:15:34;8.90;55.20
80230;DHT22;69540;42.136;24.742;2024-02-23T06:17:59;8.90;55.10
80230;DHT22;69540;42.136;24.742;2024-02-23T06:20:25;9.00;54.80
80230;DHT22;69540;42.136;24.742;2024-02-23T06:22:51;9.00;54.50
80230;DHT22;69540;42.136;24.742;2024-02-23T06:25:17;9.10;54.20
80230;DHT22;69540;42.136;24.742;2024-02-23T06:27:42;9.20;53.70
80230;DHT22;69540;42.136;24.742;2024-02-23T06:30:08;9.20;53.60
80230;DHT22;69540;42.136;24.742;2024-02-23T06:32:36;9.30;54.10
80230;DHT22;69540;42.136;24.742;2024-02-23T06:35:02;9.40;53.60
80230;DHT22;69540;42.136;24.742;2024-02-23T06:37:28;9.40;53.60
80230;DHT22;69540;42.136;24.742;2024-02-23T06:39:54;9.50;53.40
80230;DHT22;69540;42.136;24.742;2024-02-23T06:42:22;9.50;53.20
80230;DHT22;69540;42.136;24.742;2024-02-23T06:44:49;9.60;53.00
80230;DHT22;69540;42.136;24.742;2024-02-23T06:47:14;9.70;52.30
80230;DHT22;69540;42.136;24.742;2024-02-23T06:49:44;9.90;51.90
80230;DHT22;69540;42.136;24.742;2024-02-23T06:52:10;10.20;51.30
80230;DHT22;69540;42.136;24.742;2024-02-23T06:54:36;10.60;50.30
80230;DHT22;69540;42.136;24.742;2024-02-23T06:57:02;11.10;49.00
80230;DHT22;69540;42.136;24.742;2024-02-23T06:59:28;11.70;47.80
80230;DHT22;69540;42.136;24.742;2024-02-23T07:01:54;12.20;46.30
80230;DHT22;69540;42.136;24.742;2024-02-23T07:04:21;12.60;45.40
80230;DHT22;69540;42.136;24.742;2024-02-23T07:06:46;13.10;44.40
80230;DHT22;69540;42.136;24.742;2024-02-23T07:09:12;13.50;43.30
80230;DHT22;69540;42.136;24.742;2024-02-23T07:11:39;13.90;42.10
80230;DHT22;69540;42.136;24.742;2024-02-23T07:14:06;14.30;41.30
80230;DHT22;69540;42.136;24.742;2024-02-23T07:16:38;14.70;40.50
80230;DHT22;69540;42.136;24.742;2024-02-23T07:19:05;15.20;39.60
80230;DHT22;69540;42.136;24.742;2024-02-23T07:21:30;15.60;38.40
80230;DHT22;69540;42.136;24.742;2024-02-23T07:23:56;16.10;37.60
80230;DHT22;69540;42.136;24.742;2024-02-23T07:26:22;16.60;36.70
80230;DHT22;69540;42.136;24.742;2024-02-23T07:28:48;17.10;35.50
80230;DHT22;69540;42.136;24.742;2024-02-23T07:31:14;17.80;34.50
80230;DHT22;69540;42.136;24.742;2024-02-23T07:33:42;18.50;33.10
80230;DHT22;69540;42.136;24.742;2024-02-23T07:36:09;19.10;31.80
80230;DHT22;69540;42.136;24.742;2024-02-23T07:38:38;19.80;30.70
80230;DHT22;69540;42.136;24.742;2024-02-23T07:41:04;20.50;29.50
80230;DHT22;69540;42.136;24.742;2024-02-23T07:43:30;21.30;28.70
80230;DHT22;69540;42.136;24.742;2024-02-23T07:45:55;22.40;27.60
80230;DHT22;69540;42.136;24.742;2024-02-23T07:48:21;23.60;26.00
80230;DHT22;69540;42.136;24.742;2024-02-23T07:50:47;25.00;24.50
80230;DHT22;69540;42.136;24.742;2024-02-23T07:53:12;26.20;23.40
80230;DHT22;69540;42.136;24.742;2024-02-23T07:55:38;27.50;22.30
80230;DHT22;69540;42.136;24.742;2024-02-23T07:58:04;28.50;21.10
80230;DHT22;69540;42.136;24.742;2024-02-23T08:00:29;29.50;20.50
80230;DHT22;69540;42.136;24.742;2024-02-23T08:02:55;30.40;19.60
80230;DHT22;69540;42.136;24.742;2024-02-23T08:05:25;31.20;18.80
80230;DHT22;69540;42.136;24.742;2024-02-23T08:07:50;31.90;18.20
80230;DHT22;69540;42.136;24.742;2024-02-23T08:10:16;32.50;17.30
80230;DHT22;69540;42.136;24.742;2024-02-23T08:12:42;33.20;16.90
80230;DHT22;69540;42.136;24.742;2024-02-23T08:15:07;33.80;16.40
80230;DHT22;69540;42.136;24.742;2024-02-23T08:17:33;34.50;15.70
80230;DHT22;69540;42.136;24.742;2024-02-23T08:19:59;35.10;15.40
80230;DHT22;69540;42.136;24.742;2024-02-23T08:22:25;35.60;15.10
80230;DHT22;69540;42.136;24.742;2024-02-23T08:24:51;36.40;14.70
80230;DHT22;69540;42.136;24.742;2024-02-23T08:27:16;37.20;14.20
80230;DHT22;69540;42.136;24.742;2024-02-23T08:29:42;37.50;13.70
80230;DHT22;69540;42.136;24.742;2024-02-23T08:32:08;38.40;13.50
80230;DHT22;69540;42.136;24.742;2024-02-23T08:34:34;38.60;13.00
80230;DHT22;69540;42.136;24.742;2024-02-23T08:37:00;39.00;13.00
80230;DHT22;69540;42.136;24.742;2024-02-23T08:39:27;39.30;12.60
80230;DHT22;69540;42.136;24.742;2024-02-23T08:41:52;39.50;12.40
80230;DHT22;69540;42.136;24.742;2024-02-23T08:44:18;39.30;12.40
80230;DHT22;69540;42.136;24.742;2024-02-23T08:46:44;39.20;12.50
80230;DHT22;69540;42.136;24.742;2024-02-23T08:49:10;39.00;12.50
80230;DHT22;69540;42.136;24.742;2024-02-23T08:51:35;38.80;12.60
80230;DHT22;69540;42.136;24.742;2024-02-23T08:54:02;38.40;12.70
80230;DHT22;69540;42.136;24.742;2024-02-23T08:56:30;37.80;13.00
80230;DHT22;69540;42.136;24.742;2024-02-23T08:58:56;37.00;13.20
80230;DHT22;69540;42.136;24.742;2024-02-23T09:01:21;35.80;13.80
80230;DHT22;69540;42.136;24.742;2024-02-23T09:03:47;34.40;14.70
80230;DHT22;69540;42.136;24.742;2024-02-23T09:06:13;33.10;15.50
80230;DHT22;69540;42.136;24.742;2024-02-23T09:08:39;32.00;16.60
80230;DHT22;69540;42.136;24.742;2024-02-23T09:11:06;31.10;17.20
80230;DHT22;69540;42.136;24.742;2024-02-23T09:13:32;30.30;18.00
80230;DHT22;69540;42.136;24.742;2024-02-23T09:15:58;29.50;18.50
80230;DHT22;69540;42.136;24.742;2024-02-23T09:18:23;28.80;19.40
80230;DHT22;69540;42.136;24.742;2024-02-23T09:20:49;28.30;19.80
80230;DHT22;69540;42.136;24.742;2024-02-23T09:23:15;27.80;20.10
80230;DHT22;69540;42.136;24.742;2024-02-23T09:25:40;27.40;20.40
80230;DHT22;69540;42.136;24.742;2024-02-23T09:28:07;27.00;21.00
80230;DHT22;69540;42.136;24.742;2024-02-23T09:30:33;26.60;21.00
80230;DHT22;69540;42.136;24.742;2024-02-23T09:32:58;26.30;21.40
80230;DHT22;69540;42.136;24.742;2024-02-23T09:35:24;26.10;22.00
80230;DHT22;69540;42.136;24.742;2024-02-23T09:37:50;25.80;22.00
80230;DHT22;69540;42.136;24.742;2024-02-23T09:40:16;25.60;22.30
80230;DHT22;69540;42.136;24.742;2024-02-23T09:42:42;25.30;22.40
80230;DHT22;69540;42.136;24.742;2024-02-23T09:45:11;25.10;22.50
80230;DHT22;69540;42.136;24.742;2024-02-23T09:47:37;24.80;23.20
80230;DHT22;69540;42.136;24.742;2024-02-23T09:50:04;24.70;23.50
80230;DHT22;69540;42.136;24.742;2024-02-23T09:52:32;24.50;23.70
80230;DHT22;69540;42.136;24.742;2024-02-23T09:54:58;24.30;23.90
80230;DHT22;69540;42.136;24.742;2024-02-23T09:57:24;24.20;24.30
80230;DHT22;69540;42.136;24.742;2024-02-23T09:59:50;24.00;24.60
80230;DHT22;69540;42.136;24.742;2024-02-23T10:02:17;23.80;25.90
80230;DHT22;69540;42.136;24.742;2024-02-23T10:04:44;23.60;25.30
80230;DHT22;69540;42.136;24.742;2024-02-23T10:07:10;23.50;25.60
80230;DHT22;69540;42.136;24.742;2024-02-23T10:09:36;23.20;25.60
80230;DHT22;69540;42.136;24.742;2024-02-23T10:12:03;23.10;25.70
80230;DHT22;69540;42.136;24.742;2024-02-23T10:14:28;22.90;25.80
80230;DHT22;69540;42.136;24.742;2024-02-23T10:16:54;22.60;26.20
80230;DHT22;69540;42.136;24.742;2024-02-23T10:19:21;22.50;26.50
80230;DHT22;69540;42.136;24.742;2024-02-23T10:21:47;22.30;26.60
80230;DHT22;69540;42.136;24.742;2024-02-23T10:24:15;22.20;26.80
80230;DHT22;69540;42.136;24.742;2024-02-23T10:26:41;22.00;27.30
80230;DHT22;69540;42.136;24.742;2024-02-23T10:29:07;21.90;27.70
80230;DHT22;69540;42.136;24.742;2024-02-23T10:31:35;21.80;27.70
80230;DHT22;69540;42.136;24.742;2024-02-23T10:34:09;21.80;27.80
80230;DHT22;69540;42.136;24.742;2024-02-23T10:36:42;21.70;27.30
80230;DHT22;69540;42.136;24.742;2024-02-23T10:39:09;21.50;27.60
80230;DHT22;69540;42.136;24.742;2024-02-23T10:41:36;21.50;28.30
80230;DHT22;69540;42.136;24.742;2024-02-23T10:44:05;21.50;27.80
80230;DHT22;69540;42.136;24.742;2024-02-23T10:46:33;21.40;27.90
80230;DHT22;69540;42.136;24.742;2024-02-23T10:48:59;21.40;28.10
80230;DHT22;69540;42.136;24.742;2024-02-23T10:51:26;21.40;28.20
80230;DHT22;69540;42.136;24.742;2024-02-23T10:53:53;21.20;28.30
80230;DHT22;69540;42.136;24.742;2024-02-23T10:56:19;21.20;28.40
80230;DHT22;69540;42.136;24.742;2024-02-23T10:58:45;21.20;28.30
80230;DHT22;69540;42.136;24.742;2024-02-23T11:01:12;21.10;28.30
80230;DHT22;69540;42.136;24.742;2024-02-23T11:03:41;21.00;28.40
80230;DHT22;69540;42.136;24.742;2024-02-23T11:06:08;20.90;28.40
80230;DHT22;69540;42.136;24.742;2024-02-23T11:08:34;20.90;28.70
80230;DHT22;69540;42.136;24.742;2024-02-23T11:11:08;20.80;28.90
80230;DHT22;69540;42.136;24.742;2024-02-23T11:13:38;20.70;28.80
80230;DHT22;69540;42.136;24.742;2024-02-23T11:16:05;20.70;29.00
80230;DHT22;69540;42.136;24.742;2024-02-23T11:18:34;20.70;28.30
80230;DHT22;69540;42.136;24.742;2024-02-23T11:23:48;20.50;28.80
80230;DHT22;69540;42.136;24.742;2024-02-23T11:26:14;20.50;29.10
80230;DHT22;69540;42.136;24.742;2024-02-23T11:31:18;20.50;29.20
80230;DHT22;69540;42.136;24.742;2024-02-23T11:33:48;20.50;29.00
80230;DHT22;69540;42.136;24.742;2024-02-23T11:36:43;20.40;29.10
80230;DHT22;69540;42.136;24.742;2024-02-23T11:39:10;20.40;29.10
80230;DHT22;69540;42.136;24.742;2024-02-23T11:41:38;20.40;29.10
80230;DHT22;69540;42.136;24.742;2024-02-23T11:44:04;20.40;30.00
80230;DHT22;69540;42.136;24.742;2024-02-23T11:46:32;20.40;29.60
80230;DHT22;69540;42.136;24.742;2024-02-23T11:48:58;20.40;29.50
80230;DHT22;69540;42.136;24.742;2024-02-23T11:51:25;20.40;29.60
80230;DHT22;69540;42.136;24.742;2024-02-23T11:53:55;20.40;29.60
80230;DHT22;69540;42.136;24.742;2024-02-23T11:56:26;20.40;29.30
80230;DHT22;69540;42.136;24.742;2024-02-23T11:58:53;20.40;29.30
80230;DHT22;69540;42.136;24.742;2024-02-23T12:01:19;20.40;29.20
80230;DHT22;69540;42.136;24.742;2024-02-23T12:03:45;20.40;29.20
80230;DHT22;69540;42.136;24.742;2024-02-23T12:06:11;20.40;29.20
80230;DHT22;69540;42.136;24.742;2024-02-23T12:08:37;20.40;29.30
80230;DHT22;69540;42.136;24.742;2024-02-23T12:11:09;20.40;29.40
80230;DHT22;69540;42.136;24.742;2024-02-23T12:13:36;20.40;29.30
80230;DHT22;69540;42.136;24.742;2024-02-23T12:16:02;20.50;29.20
80230;DHT22;69540;42.136;24.742;2024-02-23T12:18:28;20.40;29.10
80230;DHT22;69540;42.136;24.742;2024-02-23T12:21:15;20.50;29.10
80230;DHT22;69540;42.136;24.742;2024-02-23T12:23:49;20.40;29.10
80230;DHT22;69540;42.136;24.742;2024-02-23T12:26:17;20.40;29.30
80230;DHT22;69540;42.136;24.742;2024-02-23T12:28:43;20.40;29.30
80230;DHT22;69540;42.136;24.742;2024-02-23T12:31:10;20.40;29.30
80230;DHT22;69540;42.136;24.742;2024-02-23T12:33:37;20.40;29.40
80230;DHT22;69540;42.136;24.742;2024-02-23T12:36:04;20.40;29.50
80230;DHT22;69540;42.136;24.742;2024-02-23T12:38:30;20.40;29.50
80230;DHT22;69540;42.136;24.742;2024-02-23T12:40:56;20.40;29.50
80230;DHT22;69540;42.136;24.742;2024-02-23T12:43:22;20.50;29.50
80230;DHT22;69540;42.136;24.742;2024-02-23T12:45:54;20.50;29.10
80230;DHT22;69540;42.136;24.742;2024-02-23T12:48:20;20.50;28.90
80230;DHT22;69540;42.136;24.742;2024-02-23T12:50:47;20.60;29.00
80230;DHT22;69540;42.136;24.742;2024-02-23T12:53:38;20.60;28.80
80230;DHT22;69540;42.136;24.742;2024-02-23T12:56:06;20.60;28.70
80230;DHT22;69540;42.136;24.742;2024-02-23T12:58:36;20.60;29.00
80230;DHT22;69540;42.136;24.742;2024-02-23T13:01:02;20.60;29.10
80230;DHT22;69540;42.136;24.742;2024-02-23T13:03:28;20.60;29.00
80230;DHT22;69540;42.136;24.742;2024-02-23T13:05:57;20.60;29.10
80230;DHT22;69540;42.136;24.742;2024-02-23T13:08:23;20.60;29.10
80230;DHT22;69540;42.136;24.742;2024-02-23T13:10:50;20.60;29.20
80230;DHT22;69540;42.136;24.742;2024-02-23T13:13:16;20.70;29.20
80230;DHT22;69540;42.136;24.742;2024-02-23T13:15:46;20.70;29.20
80230;DHT22;69540;42.136;24.742;2024-02-23T13:18:12;20.70;28.80
80230;DHT22;69540;42.136;24.742;2024-02-23T13:20:38;20.70;28.70
80230;DHT22;69540;42.136;24.742;2024-02-23T13:23:04;20.70;28.70
80230;DHT22;69540;42.136;24.742;2024-02-23T13:25:32;20.80;28.50
80230;DHT22;69540;42.136;24.742;2024-02-23T13:27:57;20.70;28.40
80230;DHT22;69540;42.136;24.742;2024-02-23T13:30:23;20.70;28.50
80230;DHT22;69540;42.136;24.742;2024-02-23T13:32:49;20.60;28.60
80230;DHT22;69540;42.136;24.742;2024-02-23T13:35:15;20.60;28.70
80230;DHT22;69540;42.136;24.742;2024-02-23T13:37:42;20.70;28.50
80230;DHT22;69540;42.136;24.742;2024-02-23T13:40:09;20.70;28.60
80230;DHT22;69540;42.136;24.742;2024-02-23T13:42:35;20.70;28.70
80230;DHT22;69540;42.136;24.742;2024-02-23T13:45:04;20.70;28.70
80230;DHT22;69540;42.136;24.742;2024-02-23T13:47:30;20.70;28.60
80230;DHT22;69540;42.136;24.742;2024-02-23T13:49:56;20.70;29.00
80230;DHT22;69540;42.136;24.742;2024-02-23T13:52:21;20.70;28.80
80230;DHT22;69540;42.136;24.742;2024-02-23T13:54:47;20.70;29.00
80230;DHT22;69540;42.136;24.742;2024-02-23T13:57:13;20.70;28.90
80230;DHT22;69540;42.136;24.742;2024-02-23T13:59:38;20.70;28.90
80230;DHT22;69540;42.136;24.742;2024-02-23T14:02:04;20.70;28.90
80230;DHT22;69540;42.136;24.742;2024-02-23T14:04:30;20.60;28.80
80230;DHT22;69540;42.136;24.742;2024-02-23T14:06:56;20.60;28.70
80230;DHT22;69540;42.136;24.742;2024-02-23T14:09:21;20.60;28.80
80230;DHT22;69540;42.136;24.742;2024-02-23T14:11:47;20.70;28.90
80230;DHT22;69540;42.136;24.742;2024-02-23T14:14:13;20.70;28.90
80230;DHT22;69540;42.136;24.742;2024-02-23T14:16:39;20.80;28.90
80230;DHT22;69540;42.136;24.742;2024-02-23T14:19:05;21.00;28.50
80230;DHT22;69540;42.136;24.742;2024-02-23T14:21:31;21.30;28.20
80230;DHT22;69540;42.136;24.742;2024-02-23T14:23:56;21.50;27.90
80230;DHT22;69540;42.136;24.742;2024-02-23T14:26:22;21.60;27.70
80230;DHT22;69540;42.136;24.742;2024-02-23T14:28:48;21.60;27.60
80230;DHT22;69540;42.136;24.742;2024-02-23T14:31:15;21.50;27.80
80230;DHT22;69540;42.136;24.742;2024-02-23T14:33:41;21.40;28.00
80230;DHT22;69540;42.136;24.742;2024-02-23T14:36:06;21.30;28.10
80230;DHT22;69540;42.136;24.742;2024-02-23T14:38:32;21.20;28.20
80230;DHT22;69540;42.136;24.742;2024-02-23T14:40:58;21.10;28.30
80230;DHT22;69540;42.136;24.742;2024-02-23T14:43:24;21.10;28.50
80230;DHT22;69540;42.136;24.742;2024-02-23T14:45:50;21.10;28.70
80230;DHT22;69540;42.136;24.742;2024-02-23T14:48:18;21.00;28.70
80230;DHT22;69540;42.136;24.742;2024-02-23T14:50:44;20.90;28.60
80230;DHT22;69540;42.136;24.742;2024-02-23T14:53:10;20.90;28.80
80230;DHT22;69540;42.136;24.742;2024-02-23T14:55:37;20.90;28.80
80230;DHT22;69540;42.136;24.742;2024-02-23T14:58:02;21.00;28.70
80230;DHT22;69540;42.136;24.742;2024-02-23T15:00:29;21.00;28.60
80230;DHT22;69540;42.136;24.742;2024-02-23T15:02:56;21.00;28.70
80230;DHT22;69540;42.136;24.742;2024-02-23T15:05:22;20.90;28.80
80230;DHT22;69540;42.136;24.742;2024-02-23T15:07:48;20.80;28.80
80230;DHT22;69540;42.136;24.742;2024-02-23T15:10:14;20.80;28.90
80230;DHT22;69540;42.136;24.742;2024-02-23T15:12:40;20.70;29.00
80230;DHT22;69540;42.136;24.742;2024-02-23T15:15:06;20.70;29.10
80230;DHT22;69540;42.136;24.742;2024-02-23T15:17:32;20.60;29.30
80230;DHT22;69540;42.136;24.742;2024-02-23T15:19:58;20.50;29.30